createdAt,value
2018-04-30T00:01:26.246Z,93493.05
2018-04-30T00:03:52.608Z,93496.44
2018-04-30T00:06:19.035Z,93493.53
2018-04-30T00:08:45.397Z,93494.23
2018-04-30T00:11:11.832Z,93488.31
2018-04-30T00:13:38.320Z,93487.73
2018-04-30T00:16:04.736Z,93488.41
2018-04-30T00:18:31.097Z,93486.34
2018-04-30T00:20:57.417Z,93490.66
2018-04-30T00:23:23.919Z,93490.03
2018-04-30T00:25:50.328Z,93492.17
2018-04-30T00:28:16.642Z,93486.28
2018-04-30T00:30:43.116Z,93491.75
2018-04-30T00:33:09.447Z,93491.81
2018-04-30T00:35:35.863Z,93491.64
2018-04-30T00:38:02.180Z,93491.22
2018-04-30T00:40:28.522Z,93494.88
2018-04-30T00:42:54.948Z,93492.72
2018-04-30T00:45:21.409Z,93498.45
2018-04-30T00:47:47.732Z,93500.09
2018-04-30T00:50:14.119Z,93502.95
2018-04-30T00:52:40.503Z,93500.50
2018-04-30T00:55:06.937Z,93500.77
2018-04-30T00:57:33.325Z,93506.55
2018-04-30T00:59:59.722Z,93505.44
2018-04-30T01:02:26.063Z,93506.80
2018-04-30T01:04:52.391Z,93515.28
2018-04-30T01:07:18.902Z,93514.77
2018-04-30T01:09:45.297Z,93514.86
2018-04-30T01:12:11.769Z,93510.52
2018-04-30T01:14:38.173Z,93509.94
2018-04-30T01:17:04.584Z,93508.80
2018-04-30T01:19:31.017Z,93501.75
2018-04-30T01:21:57.532Z,93496.39
2018-04-30T01:24:23.967Z,93498.92
2018-04-30T01:26:50.380Z,93502.41
2018-04-30T01:29:16.758Z,93499.87
2018-04-30T01:31:43.155Z,93495.81
2018-04-30T01:34:09.497Z,93494.55
2018-04-30T01:36:35.889Z,93496.89
2018-04-30T01:39:02.297Z,93492.13
2018-04-30T01:41:28.624Z,93485.31
2018-04-30T01:43:54.994Z,93493.59
2018-04-30T01:46:21.451Z,93489.28
2018-04-30T01:48:47.866Z,93485.13
2018-04-30T01:51:14.272Z,93474.58
2018-04-30T01:53:40.613Z,93480.50
2018-04-30T01:56:07.090Z,93479.48
2018-04-30T01:58:33.496Z,93473.23
2018-04-30T02:00:59.889Z,93477.67
2018-04-30T02:03:26.729Z,93473.77
2018-04-30T02:05:53.213Z,93472.31
2018-04-30T02:08:19.638Z,93475.08
2018-04-30T02:10:46.003Z,93473.97
2018-04-30T02:13:12.448Z,93466.25
2018-04-30T02:15:38.876Z,93472.34
2018-04-30T02:18:05.248Z,93474.72
2018-04-30T02:20:31.626Z,93478.37
2018-04-30T02:22:58.000Z,93475.12
2018-04-30T02:25:25.259Z,93474.00
2018-04-30T02:27:51.715Z,93469.12
2018-04-30T02:30:18.112Z,93468.87
2018-04-30T02:32:44.541Z,93476.11
2018-04-30T02:35:10.910Z,93477.64
2018-04-30T02:37:37.246Z,93475.11
2018-04-30T02:40:03.594Z,93475.77
2018-04-30T02:42:29.991Z,93474.16
2018-04-30T02:44:56.358Z,93477.31
2018-04-30T02:47:22.750Z,93475.30
2018-04-30T02:49:49.171Z,93469.04
2018-04-30T02:52:15.511Z,93468.45
2018-04-30T02:54:41.901Z,93460.84
2018-04-30T02:57:08.373Z,93465.45
2018-04-30T02:59:34.773Z,93464.95
2018-04-30T03:02:01.167Z,93461.81
2018-04-30T03:04:27.631Z,93458.61
2018-04-30T03:06:54.014Z,93463.80
2018-04-30T03:09:20.435Z,93461.53
2018-04-30T03:11:46.857Z,93465.54
2018-04-30T03:14:13.294Z,93466.09
2018-04-30T03:16:39.708Z,93469.55
2018-04-30T03:19:06.099Z,93472.80
2018-04-30T03:21:32.468Z,93476.86
2018-04-30T03:23:58.986Z,93472.62
2018-04-30T03:26:25.505Z,93475.39
2018-04-30T03:28:51.898Z,93473.89
2018-04-30T03:31:18.213Z,93476.45
2018-04-30T03:33:44.586Z,93480.11
2018-04-30T03:36:11.040Z,93478.25
2018-04-30T03:38:37.440Z,93484.52
2018-04-30T03:41:03.803Z,93472.65
2018-04-30T03:43:30.158Z,93476.56
2018-04-30T03:45:56.766Z,93488.47
2018-04-30T03:48:23.257Z,93487.62
2018-04-30T03:50:49.661Z,93484.71
2018-04-30T03:53:15.977Z,93488.15
2018-04-30T03:55:42.419Z,93487.54
2018-04-30T03:58:08.782Z,93489.12
2018-04-30T04:00:47.449Z,93486.22
2018-04-30T04:03:26.150Z,93496.14
2018-04-30T04:05:59.853Z,93499.72
2018-04-30T04:08:26.273Z,93498.21
2018-04-30T04:10:52.648Z,93496.41
2018-04-30T04:13:19.044Z,93495.43
2018-04-30T04:15:45.806Z,93492.30
2018-04-30T04:18:12.261Z,93492.87
2018-04-30T04:20:38.640Z,93497.94
2018-04-30T04:23:05.049Z,93502.70
2018-04-30T04:25:31.500Z,93503.48
2018-04-30T04:27:57.908Z,93512.75
2018-04-30T04:30:24.245Z,93506.49
2018-04-30T04:32:50.656Z,93504.94
2018-04-30T04:35:17.076Z,93511.90
2018-04-30T04:37:43.512Z,93519.67
2018-04-30T04:40:10.055Z,93524.13
2018-04-30T04:42:36.642Z,93523.68
2018-04-30T04:45:03.112Z,93528.38
2018-04-30T04:47:29.595Z,93538.70
2018-04-30T04:49:56.073Z,93532.45
2018-04-30T04:52:22.400Z,93528.70
2018-04-30T04:54:48.855Z,93534.07
2018-04-30T04:57:15.452Z,93531.65
2018-04-30T04:59:41.861Z,93533.28
2018-04-30T05:02:08.193Z,93542.20
2018-04-30T05:04:34.591Z,93539.59
2018-04-30T05:07:01.150Z,93541.85
2018-04-30T05:09:27.579Z,93536.31
2018-04-30T05:11:53.963Z,93534.99
2018-04-30T05:14:20.341Z,93539.03
2018-04-30T05:16:46.817Z,93546.16
2018-04-30T05:19:13.326Z,93553.63
2018-04-30T05:21:39.723Z,93548.53
2018-04-30T05:24:06.256Z,93554.36
2018-04-30T05:26:32.779Z,93552.36
2018-04-30T05:28:59.156Z,93553.06
2018-04-30T05:31:25.610Z,93555.20
2018-04-30T05:33:52.116Z,93549.62
2018-04-30T05:36:18.646Z,93550.41
2018-04-30T05:38:45.097Z,93554.10
2018-04-30T05:41:11.504Z,93554.03
2018-04-30T05:43:37.852Z,93548.91
2018-04-30T05:46:04.304Z,93550.69
2018-04-30T05:48:30.711Z,93553.91
2018-04-30T05:50:57.105Z,93547.55
2018-04-30T05:53:23.507Z,93550.51
2018-04-30T05:55:49.981Z,93548.21
2018-04-30T05:58:16.350Z,93553.47
2018-04-30T06:00:42.806Z,93555.86
2018-04-30T06:03:09.241Z,93558.83
2018-04-30T06:05:35.730Z,93555.58
2018-04-30T06:08:02.166Z,93557.80
2018-04-30T06:10:28.597Z,93559.92
2018-04-30T06:12:55.013Z,93559.42
2018-04-30T06:15:21.354Z,93556.28
2018-04-30T06:17:47.828Z,93562.33
2018-04-30T06:20:14.220Z,93559.91
2018-04-30T06:22:40.579Z,93563.07
2018-04-30T06:25:07.049Z,93558.27
2018-04-30T06:27:33.460Z,93561.94
2018-04-30T06:29:59.937Z,93560.20
2018-04-30T06:32:26.412Z,93560.05
2018-04-30T06:34:52.737Z,93561.31
2018-04-30T06:37:19.291Z,93553.14
2018-04-30T06:39:45.687Z,93549.42
2018-04-30T06:42:12.047Z,93550.52
2018-04-30T06:44:38.401Z,93549.66
2018-04-30T06:47:04.912Z,93544.16
2018-04-30T06:49:31.436Z,93541.98
2018-04-30T06:51:57.943Z,93541.45
2018-04-30T06:54:25.255Z,93542.63
2018-04-30T06:56:52.499Z,93538.53
2018-04-30T06:59:18.935Z,93543.25
2018-04-30T07:01:45.381Z,93538.59
2018-04-30T07:04:12.768Z,93542.48
2018-04-30T07:06:39.317Z,93542.98
2018-04-30T07:09:05.729Z,93540.98
2018-04-30T07:11:32.087Z,93536.91
2018-04-30T07:13:58.430Z,93531.27
2018-04-30T07:16:24.930Z,93538.11
2018-04-30T07:18:51.271Z,93535.13
2018-04-30T07:21:17.768Z,93531.30
2018-04-30T07:23:44.289Z,93530.61
2018-04-30T07:26:10.757Z,93526.31
2018-04-30T07:28:37.161Z,93520.77
2018-04-30T07:31:03.635Z,93518.75
2018-04-30T07:33:30.072Z,93520.27
2018-04-30T07:35:56.519Z,93518.66
2018-04-30T07:38:22.895Z,93508.67
2018-04-30T07:40:49.226Z,93513.41
2018-04-30T07:43:15.621Z,93505.23
2018-04-30T07:45:42.026Z,93514.22
2018-04-30T07:48:08.400Z,93504.48
2018-04-30T07:50:34.754Z,93499.88
2018-04-30T07:53:01.174Z,93501.75
2018-04-30T07:55:27.778Z,93507.42
2018-04-30T07:57:54.426Z,93499.14
2018-04-30T08:00:21.051Z,93504.27
2018-04-30T08:02:47.507Z,93499.78
2018-04-30T08:05:13.903Z,93499.73
2018-04-30T08:07:40.349Z,93493.73
2018-04-30T08:10:06.742Z,93495.91
2018-04-30T08:12:33.106Z,93491.94
2018-04-30T08:14:59.698Z,93492.09
2018-04-30T08:17:26.140Z,93484.16
2018-04-30T08:19:52.489Z,93483.05
2018-04-30T08:22:18.814Z,93486.52
2018-04-30T08:24:45.195Z,93481.76
2018-04-30T08:27:11.585Z,93482.19
2018-04-30T08:29:37.980Z,93469.52
2018-04-30T08:32:04.436Z,93469.58
2018-04-30T08:34:30.876Z,93472.36
2018-04-30T08:36:57.335Z,93474.36
2018-04-30T08:39:23.825Z,93472.73
2018-04-30T08:41:50.380Z,93471.70
2018-04-30T08:44:16.755Z,93472.67
2018-04-30T08:46:43.166Z,93477.42
2018-04-30T08:49:09.560Z,93477.06
2018-04-30T08:51:36.261Z,93476.36
2018-04-30T08:54:02.863Z,93477.34
2018-04-30T08:56:29.410Z,93470.69
2018-04-30T08:58:55.829Z,93464.40
2018-04-30T09:01:22.397Z,93468.75
2018-04-30T09:03:48.918Z,93465.77
2018-04-30T09:06:15.422Z,93466.12
2018-04-30T09:08:41.840Z,93463.25
2018-04-30T09:11:08.345Z,93461.04
2018-04-30T09:13:34.885Z,93460.14
2018-04-30T09:16:01.444Z,93465.84
2018-04-30T09:18:27.915Z,93470.09
2018-04-30T09:20:54.471Z,93473.43
2018-04-30T09:23:20.974Z,93463.33
2018-04-30T09:25:47.541Z,93461.81
2018-04-30T09:28:14.016Z,93462.09
2018-04-30T09:30:44.520Z,93452.88
2018-04-30T09:33:11.011Z,93448.56
2018-04-30T09:35:37.831Z,93445.60
2018-04-30T09:38:04.303Z,93449.59
2018-04-30T09:40:30.825Z,93446.57
2018-04-30T09:42:57.219Z,93442.39
2018-04-30T09:45:23.744Z,93438.30
2018-04-30T09:47:50.149Z,93431.70
2018-04-30T09:50:16.628Z,93437.58
2018-04-30T09:52:43.059Z,93434.83
2018-04-30T09:55:09.407Z,93440.41
2018-04-30T09:57:35.853Z,93432.50
2018-04-30T10:00:02.581Z,93433.53
2018-04-30T10:02:29.002Z,93426.45
2018-04-30T10:04:55.425Z,93428.22
2018-04-30T10:07:22.783Z,93421.53
2018-04-30T10:09:49.144Z,93423.52
2018-04-30T10:12:15.770Z,93425.77
2018-04-30T10:14:42.207Z,93418.62
2018-04-30T10:17:08.757Z,93420.10
2018-04-30T10:19:35.151Z,93422.33
2018-04-30T10:22:01.598Z,93414.19
2018-04-30T10:24:28.323Z,93412.75
2018-04-30T10:26:54.772Z,93411.97
2018-04-30T10:29:21.162Z,93408.47
2018-04-30T10:31:47.584Z,93406.23
2018-04-30T10:34:14.089Z,93408.26
2018-04-30T10:36:40.782Z,93415.77
2018-04-30T10:39:07.263Z,93409.98
2018-04-30T10:41:33.662Z,93399.70
2018-04-30T10:44:00.043Z,93410.53
2018-04-30T10:46:26.790Z,93400.03
2018-04-30T10:48:53.464Z,93404.92
2018-04-30T10:51:19.872Z,93402.39
2018-04-30T10:53:46.320Z,93401.02
2018-04-30T10:56:12.690Z,93402.09
2018-04-30T10:58:39.192Z,93397.57
2018-04-30T11:01:05.566Z,93392.87
2018-04-30T11:03:31.977Z,93394.75
2018-04-30T11:05:58.452Z,93392.37
2018-04-30T11:08:25.013Z,93392.72
2018-04-30T11:10:51.554Z,93394.08
2018-04-30T11:13:18.076Z,93397.92
2018-04-30T11:15:44.506Z,93393.34
2018-04-30T11:18:11.121Z,93391.14
2018-04-30T11:20:37.643Z,93386.28
2018-04-30T11:23:04.072Z,93382.02
2018-04-30T11:25:30.443Z,93377.30
2018-04-30T11:27:56.932Z,93378.27
2018-04-30T11:30:23.361Z,93382.80
2018-04-30T11:32:50.110Z,93376.94
2018-04-30T11:35:17.420Z,93375.38
2018-04-30T11:37:43.914Z,93374.38
2018-04-30T11:40:10.339Z,93378.02
2018-04-30T11:42:38.368Z,93375.48
2018-04-30T11:45:04.821Z,93376.67
2018-04-30T11:47:31.287Z,93371.16
2018-04-30T11:49:57.956Z,93367.52
2018-04-30T11:52:24.441Z,93368.61
2018-04-30T11:54:50.793Z,93365.39
2018-04-30T11:57:17.302Z,93367.28
2018-04-30T11:59:43.754Z,93364.27
2018-04-30T12:02:10.143Z,93363.69
2018-04-30T12:04:36.737Z,93354.57
2018-04-30T12:11:52.265Z,93346.44
2018-04-30T12:14:18.682Z,93341.36
2018-04-30T12:16:45.234Z,93337.91
2018-04-30T12:19:11.715Z,93342.41
2018-04-30T12:21:38.082Z,93332.55
2018-04-30T12:24:04.489Z,93333.66
2018-04-30T12:26:30.975Z,93329.88
2018-04-30T12:28:57.731Z,93332.55
2018-04-30T12:31:24.308Z,93318.79
2018-04-30T12:33:50.818Z,93323.71
2018-04-30T12:36:17.689Z,93325.03
2018-04-30T12:38:44.107Z,93331.32
2018-04-30T12:41:10.540Z,93327.35
2018-04-30T12:43:37.635Z,93321.75
2018-04-30T12:46:04.151Z,93323.48
2018-04-30T12:48:30.943Z,93322.36
2018-04-30T12:50:57.647Z,93319.03
2018-04-30T12:53:24.274Z,93327.60
2018-04-30T12:55:50.786Z,93321.02
2018-04-30T12:58:17.481Z,93329.34
2018-04-30T13:00:43.979Z,93318.38
2018-04-30T13:03:10.576Z,93318.54
2018-04-30T13:05:37.309Z,93323.34
2018-04-30T13:08:03.739Z,93330.80
2018-04-30T13:10:30.198Z,93325.09
2018-04-30T13:12:56.728Z,93320.36
2018-04-30T13:15:23.336Z,93316.62
2018-04-30T13:17:50.183Z,93322.91
2018-04-30T13:20:17.624Z,93317.75
2018-04-30T13:22:44.297Z,93303.77
2018-04-30T13:55:08.105Z,93285.26
2018-04-30T13:57:34.524Z,93280.33
2018-04-30T14:00:01.187Z,93268.77
2018-04-30T14:02:27.615Z,93269.13
2018-04-30T14:04:54.556Z,93272.30
2018-04-30T14:07:21.172Z,93278.73
2018-04-30T14:09:47.765Z,93273.83
2018-04-30T14:12:14.166Z,93275.14
2018-04-30T14:14:40.646Z,93271.16
2018-04-30T14:17:07.051Z,93266.12
2018-04-30T14:19:33.614Z,93272.47
2018-04-30T14:22:00.126Z,93269.33
2018-04-30T14:24:26.746Z,93271.99
2018-04-30T14:26:53.177Z,93273.70
2018-04-30T14:29:19.623Z,93268.08
2018-04-30T14:31:46.154Z,93263.23
2018-04-30T14:34:12.493Z,93270.58
2018-04-30T14:36:38.889Z,93264.53
2018-04-30T14:39:05.382Z,93261.91
2018-04-30T14:41:33.686Z,93263.80
2018-04-30T14:44:00.103Z,93260.06
2018-04-30T14:46:26.546Z,93258.92
2018-04-30T14:48:53.034Z,93257.75
2018-04-30T14:51:19.467Z,93254.09
2018-04-30T14:53:45.937Z,93258.99
2018-04-30T14:56:12.387Z,93249.25
2018-04-30T14:58:38.931Z,93253.75
2018-04-30T15:01:05.495Z,93257.72
2018-04-30T15:03:32.061Z,93252.77
2018-04-30T15:05:58.498Z,93256.48
2018-04-30T15:08:25.063Z,93251.05
2018-04-30T15:10:51.631Z,93255.52
2018-04-30T15:13:18.025Z,93246.77
2018-04-30T15:15:44.476Z,93246.89
2018-04-30T15:18:11.030Z,93240.03
2018-04-30T15:20:37.481Z,93235.28
2018-04-30T15:23:04.455Z,93243.56
2018-04-30T15:25:30.940Z,93232.78
2018-04-30T15:27:57.424Z,93236.94
2018-04-30T15:30:24.088Z,93243.23
2018-04-30T15:32:50.517Z,93240.56
2018-04-30T15:35:16.934Z,93236.31
2018-04-30T15:37:43.466Z,93230.42
2018-04-30T15:40:09.893Z,93234.09
2018-04-30T15:42:36.347Z,93228.34
2018-04-30T15:45:02.879Z,93231.22
2018-04-30T15:47:29.289Z,93227.17
2018-04-30T15:49:55.672Z,93229.88
2018-04-30T15:52:22.092Z,93229.90
2018-04-30T15:54:48.498Z,93227.72
2018-04-30T15:57:14.977Z,93225.19
2018-04-30T15:59:41.479Z,93223.77
2018-04-30T16:02:07.957Z,93229.44
2018-04-30T16:04:34.373Z,93227.66
2018-04-30T16:07:00.817Z,93228.28
2018-04-30T16:09:27.354Z,93231.20
2018-04-30T16:11:53.978Z,93224.47
2018-04-30T16:14:21.686Z,93228.76
2018-04-30T16:16:47.995Z,93226.83
2018-04-30T16:19:14.423Z,93232.81
2018-04-30T16:21:40.855Z,93238.73
2018-04-30T16:24:07.942Z,93232.39
2018-04-30T16:26:34.355Z,93235.38
2018-04-30T16:29:00.906Z,93236.42
2018-04-30T16:31:27.286Z,93226.53
2018-04-30T16:33:53.746Z,93236.42
2018-04-30T16:36:20.521Z,93229.30
2018-04-30T16:38:47.013Z,93231.87
2018-04-30T16:41:13.435Z,93234.64
2018-04-30T16:43:39.902Z,93236.05
2018-04-30T16:46:06.273Z,93236.07
2018-04-30T16:48:32.777Z,93233.98
2018-04-30T16:50:59.280Z,93228.00
2018-04-30T16:53:25.656Z,93233.72
2018-04-30T16:55:52.078Z,93234.41
2018-04-30T16:58:18.562Z,93238.59
2018-04-30T17:00:44.951Z,93237.06
2018-04-30T17:03:11.428Z,93243.53
2018-04-30T17:05:37.869Z,93235.02
2018-04-30T17:08:05.192Z,93238.16
2018-04-30T17:10:31.864Z,93241.10
2018-04-30T17:12:58.326Z,93236.48
2018-04-30T17:15:24.714Z,93237.59
2018-04-30T17:17:51.597Z,93245.63
2018-04-30T17:20:18.138Z,93249.27
2018-04-30T17:22:44.575Z,93256.61
2018-04-30T17:25:11.111Z,93257.05
2018-04-30T17:27:37.651Z,93260.19
2018-04-30T17:30:04.148Z,93259.60
2018-04-30T17:32:30.758Z,93263.95
2018-04-30T17:34:57.509Z,93266.98
2018-04-30T17:37:24.015Z,93269.98
2018-04-30T17:39:50.521Z,93273.52
2018-04-30T17:42:17.073Z,93275.43
2018-04-30T17:44:43.703Z,93272.03
2018-04-30T17:47:10.482Z,93271.63
2018-04-30T17:49:38.044Z,93270.83
2018-04-30T17:52:05.513Z,93275.89
2018-04-30T17:54:32.723Z,93274.17
2018-04-30T17:59:26.131Z,93277.03
2018-04-30T18:01:52.637Z,93274.31
2018-04-30T18:04:19.412Z,93272.78
2018-04-30T18:06:46.542Z,93270.87
2018-04-30T18:09:13.275Z,93271.36
2018-04-30T18:11:39.776Z,93268.55
2018-04-30T18:14:06.403Z,93264.66
2018-04-30T18:16:33.022Z,93267.83
2018-04-30T18:18:59.809Z,93268.51
2018-04-30T18:21:26.294Z,93270.35
2018-04-30T18:23:52.744Z,93274.56
2018-04-30T18:26:19.194Z,93275.99
2018-04-30T18:28:45.597Z,93281.23
2018-04-30T18:31:12.043Z,93285.30
2018-04-30T18:33:38.748Z,93288.97
2018-04-30T18:36:05.379Z,93287.52
2018-04-30T18:38:31.998Z,93289.45
2018-04-30T18:40:58.530Z,93288.44
2018-04-30T18:43:26.067Z,93295.88
2018-04-30T18:45:52.530Z,93299.57
2018-04-30T18:48:19.115Z,93296.39
2018-04-30T18:50:46.231Z,93297.34
2018-04-30T18:53:12.973Z,93295.95
2018-04-30T18:58:06.099Z,93297.33
2018-04-30T19:00:32.686Z,93304.11
2018-04-30T19:02:59.078Z,93303.41
2018-04-30T19:05:25.468Z,93309.95
2018-04-30T19:07:51.953Z,93305.28
2018-04-30T19:10:18.453Z,93306.25
2018-04-30T19:12:44.978Z,93308.44
2018-04-30T19:15:11.382Z,93311.31
2018-04-30T19:17:38.452Z,93312.33
2018-04-30T19:20:05.191Z,93310.38
2018-04-30T19:22:31.685Z,93314.20
2018-04-30T19:24:58.137Z,93322.14
2018-04-30T19:27:24.548Z,93322.63
2018-04-30T19:29:51.202Z,93315.64
2018-04-30T19:32:17.635Z,93327.86
2018-04-30T19:34:44.081Z,93324.42
2018-04-30T19:37:10.520Z,93327.17
2018-04-30T19:39:36.988Z,93332.77
2018-04-30T19:42:03.387Z,93331.41
2018-04-30T19:44:29.746Z,93336.38
2018-04-30T19:46:56.184Z,93333.13
2018-04-30T19:49:22.730Z,93335.33
2018-04-30T19:51:49.364Z,93342.44
2018-04-30T19:54:15.859Z,93342.59
2018-04-30T19:56:42.254Z,93341.81
2018-04-30T19:59:08.750Z,93348.63
2018-04-30T20:01:35.328Z,93349.08
2018-04-30T20:04:01.827Z,93348.00
2018-04-30T20:06:28.225Z,93347.11
2018-04-30T20:08:54.883Z,93346.05
2018-04-30T20:11:21.270Z,93351.47
2018-04-30T20:13:47.696Z,93351.03
2018-04-30T20:16:14.268Z,93349.59
2018-04-30T20:18:40.838Z,93356.80
2018-04-30T20:21:07.511Z,93354.23
2018-04-30T20:23:35.829Z,93352.93
2018-04-30T20:26:02.422Z,93356.13
2018-04-30T20:28:29.012Z,93357.30
2018-04-30T20:30:59.189Z,93363.98
2018-04-30T20:33:25.573Z,93358.94
2018-04-30T20:35:51.935Z,93353.53
2018-04-30T20:38:18.633Z,93354.27
2018-04-30T20:40:44.981Z,93357.98
2018-04-30T20:43:11.407Z,93352.34
2018-04-30T20:45:39.412Z,93355.06
2018-04-30T20:48:06.047Z,93349.77
2018-04-30T20:50:32.713Z,93358.02
2018-04-30T20:52:59.142Z,93361.41
2018-04-30T20:55:25.549Z,93358.02
2018-04-30T20:57:51.997Z,93365.84
2018-04-30T21:00:18.394Z,93377.39
2018-04-30T21:02:45.204Z,93382.88
2018-04-30T21:05:11.637Z,93375.52
2018-04-30T21:07:38.148Z,93383.77
2018-04-30T21:10:04.630Z,93382.45
2018-04-30T21:12:31.114Z,93376.56
2018-04-30T21:14:57.573Z,93376.34
2018-04-30T21:17:23.997Z,93379.04
2018-04-30T21:19:50.474Z,93374.83
2018-04-30T21:22:17.066Z,93379.39
2018-04-30T21:24:43.549Z,93387.22
2018-04-30T21:27:10.034Z,93377.09
2018-04-30T21:29:36.449Z,93371.56
2018-04-30T21:32:02.861Z,93379.39
2018-04-30T21:34:34.215Z,93379.59
2018-04-30T21:37:00.610Z,93377.67
2018-04-30T21:39:27.393Z,93384.23
2018-04-30T21:41:53.887Z,93385.03
2018-04-30T21:44:20.249Z,93380.64
2018-04-30T21:46:46.664Z,93384.45
2018-04-30T21:49:13.197Z,93387.38
2018-04-30T21:51:39.681Z,93390.42
2018-04-30T21:54:06.211Z,93388.34
2018-04-30T21:56:32.742Z,93393.77
2018-04-30T21:58:59.150Z,93392.28
2018-04-30T22:01:25.544Z,93399.30
2018-04-30T22:03:51.932Z,93399.69
2018-04-30T22:06:18.434Z,93399.28
2018-04-30T22:08:45.214Z,93407.95
2018-04-30T22:11:11.623Z,93401.59
2018-04-30T22:13:37.952Z,93407.77
2018-04-30T22:16:04.376Z,93409.44
2018-04-30T22:18:30.833Z,93407.23
2018-04-30T22:20:57.187Z,93406.94
2018-04-30T22:23:23.577Z,93410.08
2018-04-30T22:25:50.090Z,93407.28
2018-04-30T22:28:16.475Z,93407.53
2018-04-30T22:30:42.875Z,93408.02
2018-04-30T22:33:09.467Z,93406.04
2018-04-30T22:35:36.205Z,93403.09
2018-04-30T22:38:02.637Z,93398.02
2018-04-30T22:40:29.009Z,93402.12
2018-04-30T22:42:55.394Z,93397.30
2018-04-30T22:45:21.912Z,93396.66
2018-04-30T22:47:48.307Z,93397.86
2018-04-30T22:50:14.738Z,93397.14
2018-04-30T22:52:41.157Z,93398.81
2018-04-30T22:55:07.564Z,93388.59
2018-04-30T22:57:34.004Z,93394.10
2018-04-30T23:00:00.458Z,93390.55
2018-04-30T23:02:26.809Z,93382.23
2018-04-30T23:04:53.405Z,93378.49
2018-04-30T23:07:19.849Z,93383.33
2018-04-30T23:09:46.329Z,93386.64
2018-04-30T23:12:12.695Z,93383.81
2018-04-30T23:14:39.042Z,93388.91
2018-04-30T23:17:05.447Z,93380.40
2018-04-30T23:19:32.167Z,93385.16
2018-04-30T23:21:58.529Z,93383.94
2018-04-30T23:24:25.028Z,93387.84
2018-04-30T23:26:51.614Z,93385.14
2018-04-30T23:29:18.103Z,93384.19
2018-04-30T23:31:44.483Z,93383.06
2018-04-30T23:34:10.837Z,93380.23
2018-04-30T23:36:37.189Z,93382.75
2018-04-30T23:39:03.728Z,93382.44
2018-04-30T23:41:30.052Z,93376.81
2018-04-30T23:43:56.380Z,93378.36
2018-04-30T23:46:22.753Z,93375.62
2018-04-30T23:48:49.200Z,93374.31
2018-04-30T23:51:15.613Z,93378.58
2018-04-30T23:53:42.050Z,93379.70
2018-04-30T23:56:08.494Z,93381.23
2018-04-30T23:58:34.923Z,93379.28
